ADDS METAR Data INFO
IDs: Format: Raw Decoded Include TAF

Data at: 2346 UTC 15 Dec 2017

KASH 152256Z 00000KT 10SM SCT055 OVC090 M04/M10 A2988 RMK AO2 SLP130 T10441100
KASH 152156Z 10003KT 10SM OVC070 M04/M10 A2991 RMK AO2 SLP139 T10441100
KASH 152056Z 00000KT 10SM OVC090 M04/M11 A2994 RMK AO2 SLP151 T10441106 57019
KASH 151956Z VRB04KT 10SM OVC110 M04/M11 A2997 RMK AO2 SLP159 T10391106
KASH 151856Z VRB04KT 10SM OVC110 M04/M11 A2998 RMK AO2 SLP163 T10391106
KASH 151756Z 14003KT 10SM FEW120 M03/M11 A3000 RMK AO2 SLP171 T10331111 11028 21161 58028
KASH 151656Z VRB03KT 10SM CLR M04/M11 A3003 RMK AO2 SLP179 T10391111
KASH 151556Z 00000KT 10SM CLR M04/M11 A3006 RMK AO2 SLP192 T10441111
KASH 151456Z 00000KT 10SM CLR M04/M08 A3008 RMK AO2 SLP199 T10391083 53012
KASH 151356Z 00000KT 10SM CLR M12/M13 A3007 RMK AO2 SLP195 T11171128
KASH 151256Z 00000KT 10SM CLR M16/M17 A3006 RMK AO2 SLP191 T11561167
KASH 151156Z 00000KT 10SM CLR M16/M18 A3005 RMK AO2 SLP188 T11611178 11133 21161 53007
KASH 151056Z AUTO 00000KT 10SM CLR M15/M17 A3004 RMK AO2 SLP184 T11501167
KASH 150956Z AUTO 00000KT 10SM CLR M15/M17 A3004 RMK AO2 SLP184 T11501172
KASH 150856Z AUTO 00000KT 10SM CLR M16/M18 A3003 RMK AO2 SLP180 T11561183 51013
KASH 150756Z AUTO 00000KT 10SM CLR M15/M18 A3002 RMK AO2 SLP179 T11501183
KASH 150656Z AUTO 28003KT 10SM CLR M14/M16 A3000 RMK AO2 SLP172 T11391161
KASH 150556Z AUTO 21003KT 10SM CLR M14/M19 A2999 RMK AO2 SLP167 T11391189 11078 21139 51013
KASH 150456Z AUTO 19004KT 10SM CLR M13/M17 A2998 RMK AO2 SLP164 T11281172
KASH 150356Z AUTO 00000KT 10SM CLR M12/M18 A2997 RMK AO2 SLP161 T11221178 410221122
KASH 150156Z 24003KT 10SM CLR M09/M17 A2993 RMK AO2 SLP148 T10941167
KASH 150056Z 26006KT 10SM CLR M08/M16 A2990 RMK AO2 SLP137 T10831161
KASH 142356Z 26005KT 10SM CLR M08/M16 A2987 RMK AO2 SLP125 T10781156 11022 21078 51040
KASH 142156Z 00000KT 10SM CLR M06/M16 A2979 RMK AO2 SLP100 T10611156
KASH 142056Z 30011G19KT 10SM CLR M04/M16 A2975 RMK AO2 SLP086 T10441156 53036
KASH 141956Z 30016G24KT 10SM CLR M03/M16 A2971 RMK AO2 PK WND 29029/1936 SLP073 T10331161
KASH 141856Z 29013G20KT 10SM CLR M03/M15 A2967 RMK AO2 SLP059 T10281150
KASH 141756Z 28014G19KT 10SM FEW110 M02/M13 A2964 RMK AO2 SLP049 T10221133 11022 21078 52008
KASH 141656Z 30012G19KT 10SM CLR M03/M14 A2963 RMK AO2 SLP046 T10281144
KASH 141556Z 29008KT 10SM FEW075 M04/M12 A2963 RMK AO2 SLP045 T10391122
KASH 141456Z 30008KT 10SM BKN070 OVC085 M06/M12 A2962 RMK AO2 SLP041 T10561117 53003
KASH 141356Z 29004KT 10SM OVC080 M06/M11 A2960 RMK AO2 SLP035 T10611106
KASH 141256Z 00000KT 10SM SCT080 BKN110 M08/M11 A2961 RMK AO2 SLP037 T10781111
KASH 141156Z VRB03KT 10SM BKN060 BKN080 OVC090 M07/M11 A2961 RMK AO2 SNB22E44 SLP037 P0000 60000 T10721111 11072 21072 53012